sensor_id;sensor_type;location;lat;lon;timestamp;pressure;altitude;pressure_sealevel;temperature;humidity
2681;BME280;1350;42.134;24.708;2022-08-16T00:01:49;98731.91;;;22.98;100.00
2681;BME280;1350;42.134;24.708;2022-08-16T00:04:16;98740.97;;;23.05;100.00
2681;BME280;1350;42.134;24.708;2022-08-16T00:06:43;98743.38;;;23.00;100.00
2681;BME280;1350;42.134;24.708;2022-08-16T00:09:10;98740.44;;;23.10;100.00
2681;BME280;1350;42.134;24.708;2022-08-16T00:11:38;98734.53;;;23.06;100.00
2681;BME280;1350;42.134;24.708;2022-08-16T00:14:09;98729.47;;;23.03;100.00
2681;BME280;1350;42.134;24.708;2022-08-16T00:16:36;98731.72;;;23.00;100.00
2681;BME280;1350;42.134;24.708;2022-08-16T00:19:04;98739.56;;;22.87;100.00
2681;BME280;1350;42.134;24.708;2022-08-16T00:21:32;98741.13;;;22.81;100.00
2681;BME280;1350;42.134;24.708;2022-08-16T00:23:59;98745.28;;;22.92;100.00
2681;BME280;1350;42.134;24.708;2022-08-16T00:26:26;98750.03;;;22.90;100.00
2681;BME280;1350;42.134;24.708;2022-08-16T00:28:53;98745.97;;;22.94;100.00
2681;BME280;1350;42.134;24.708;2022-08-16T00:31:19;98756.28;;;22.90;100.00
2681;BME280;1350;42.134;24.708;2022-08-16T00:33:46;98748.53;;;22.87;100.00
2681;BME280;1350;42.134;24.708;2022-08-16T00:36:14;98758.06;;;22.75;100.00
2681;BME280;1350;42.134;24.708;2022-08-16T00:38:41;98756.84;;;22.78;100.00
2681;BME280;1350;42.134;24.708;2022-08-16T00:41:08;98763.75;;;22.80;100.00
2681;BME280;1350;42.134;24.708;2022-08-16T00:43:35;98760.59;;;22.77;100.00
2681;BME280;1350;42.134;24.708;2022-08-16T00:46:08;98765.00;;;22.70;100.00
2681;BME280;1350;42.134;24.708;2022-08-16T00:48:36;98758.13;;;22.59;100.00
2681;BME280;1350;42.134;24.708;2022-08-16T00:51:04;98757.28;;;22.59;100.00
2681;BME280;1350;42.134;24.708;2022-08-16T00:53:33;98759.50;;;22.55;100.00
2681;BME280;1350;42.134;24.708;2022-08-16T00:56:05;98760.88;;;22.51;100.00
2681;BME280;1350;42.134;24.708;2022-08-16T00:58:36;98745.56;;;22.28;100.00
2681;BME280;1350;42.134;24.708;2022-08-16T01:01:06;98742.53;;;22.31;100.00
2681;BME280;1350;42.134;24.708;2022-08-16T01:03:34;98753.63;;;22.36;100.00
2681;BME280;1350;42.134;24.708;2022-08-16T01:06:03;98754.66;;;22.35;100.00
2681;BME280;1350;42.134;24.708;2022-08-16T01:08:34;98761.44;;;22.31;100.00
2681;BME280;1350;42.134;24.708;2022-08-16T01:11:03;98773.22;;;22.30;100.00
2681;BME280;1350;42.134;24.708;2022-08-16T01:13:32;98765.13;;;22.38;100.00
2681;BME280;1350;42.134;24.708;2022-08-16T01:16:03;98757.84;;;22.38;100.00
2681;BME280;1350;42.134;24.708;2022-08-16T01:18:33;98757.97;;;22.06;100.00
2681;BME280;1350;42.134;24.708;2022-08-16T01:21:08;98756.47;;;21.96;100.00
2681;BME280;1350;42.134;24.708;2022-08-16T01:23:52;98759.81;;;22.06;100.00
2681;BME280;1350;42.134;24.708;2022-08-16T01:26:21;98752.66;;;22.21;100.00
2681;BME280;1350;42.134;24.708;2022-08-16T01:28:49;98767.22;;;22.04;100.00
2681;BME280;1350;42.134;24.708;2022-08-16T01:31:17;98768.38;;;22.17;100.00
2681;BME280;1350;42.134;24.708;2022-08-16T01:33:46;98777.50;;;22.16;100.00
2681;BME280;1350;42.134;24.708;2022-08-16T01:36:13;98777.16;;;22.11;100.00
2681;BME280;1350;42.134;24.708;2022-08-16T01:38:42;98775.50;;;22.02;100.00
2681;BME280;1350;42.134;24.708;2022-08-16T01:41:13;98780.72;;;22.04;100.00
2681;BME280;1350;42.134;24.708;2022-08-16T01:43:43;98776.88;;;21.98;100.00
2681;BME280;1350;42.134;24.708;2022-08-16T01:46:19;98773.03;;;21.85;100.00
2681;BME280;1350;42.134;24.708;2022-08-16T01:48:47;98788.03;;;21.87;100.00
2681;BME280;1350;42.134;24.708;2022-08-16T01:51:15;98796.13;;;21.87;100.00
2681;BME280;1350;42.134;24.708;2022-08-16T01:53:44;98789.00;;;21.94;100.00
2681;BME280;1350;42.134;24.708;2022-08-16T01:56:13;98794.91;;;21.98;100.00
2681;BME280;1350;42.134;24.708;2022-08-16T01:58:39;98791.06;;;22.00;100.00
2681;BME280;1350;42.134;24.708;2022-08-16T02:01:06;98788.88;;;21.88;100.00
2681;BME280;1350;42.134;24.708;2022-08-16T02:03:33;98787.50;;;21.84;100.00
2681;BME280;1350;42.134;24.708;2022-08-16T02:06:00;98789.22;;;21.77;100.00
2681;BME280;1350;42.134;24.708;2022-08-16T02:08:27;98793.41;;;21.87;100.00
2681;BME280;1350;42.134;24.708;2022-08-16T02:10:54;98794.75;;;21.91;100.00
2681;BME280;1350;42.134;24.708;2022-08-16T02:13:22;98801.69;;;21.94;100.00
2681;BME280;1350;42.134;24.708;2022-08-16T02:15:49;98795.09;;;21.96;100.00
2681;BME280;1350;42.134;24.708;2022-08-16T02:18:16;98810.47;;;21.96;100.00
2681;BME280;1350;42.134;24.708;2022-08-16T02:20:47;98805.06;;;21.80;100.00
2681;BME280;1350;42.134;24.708;2022-08-16T02:23:15;98801.81;;;21.68;100.00
2681;BME280;1350;42.134;24.708;2022-08-16T02:25:42;98798.28;;;21.59;100.00
2681;BME280;1350;42.134;24.708;2022-08-16T02:28:12;98807.41;;;21.50;100.00
2681;BME280;1350;42.134;24.708;2022-08-16T02:30:41;98805.88;;;21.48;100.00
2681;BME280;1350;42.134;24.708;2022-08-16T02:33:08;98808.25;;;21.51;100.00
2681;BME280;1350;42.134;24.708;2022-08-16T02:35:36;98804.19;;;21.47;100.00
2681;BME280;1350;42.134;24.708;2022-08-16T02:38:03;98789.19;;;21.52;100.00
2681;BME280;1350;42.134;24.708;2022-08-16T02:40:31;98786.66;;;21.51;100.00
2681;BME280;1350;42.134;24.708;2022-08-16T02:42:58;98797.47;;;21.51;100.00
2681;BME280;1350;42.134;24.708;2022-08-16T02:45:27;98793.56;;;21.53;100.00
2681;BME280;1350;42.134;24.708;2022-08-16T02:47:55;98795.59;;;21.59;100.00
2681;BME280;1350;42.134;24.708;2022-08-16T02:50:23;98795.09;;;21.64;100.00
2681;BME280;1350;42.134;24.708;2022-08-16T02:52:49;98787.84;;;21.64;100.00
2681;BME280;1350;42.134;24.708;2022-08-16T02:58:27;98786.13;;;21.63;100.00
2681;BME280;1350;42.134;24.708;2022-08-16T03:01:03;98799.13;;;21.68;100.00
2681;BME280;1350;42.134;24.708;2022-08-16T03:04:01;98799.13;;;21.68;100.00
2681;BME280;1350;42.134;24.708;2022-08-16T03:06:45;98799.63;;;21.71;100.00
2681;BME280;1350;42.134;24.708;2022-08-16T03:09:12;98792.56;;;21.70;100.00
2681;BME280;1350;42.134;24.708;2022-08-16T03:11:39;98795.28;;;21.79;100.00
2681;BME280;1350;42.134;24.708;2022-08-16T03:14:06;98803.88;;;21.74;100.00
2681;BME280;1350;42.134;24.708;2022-08-16T03:16:33;98805.41;;;21.77;100.00
2681;BME280;1350;42.134;24.708;2022-08-16T03:19:01;98808.13;;;21.85;100.00
2681;BME280;1350;42.134;24.708;2022-08-16T03:21:28;98814.50;;;21.84;100.00
2681;BME280;1350;42.134;24.708;2022-08-16T03:23:56;98816.03;;;21.78;100.00
2681;BME280;1350;42.134;24.708;2022-08-16T03:26:23;98819.41;;;21.80;100.00
2681;BME280;1350;42.134;24.708;2022-08-16T03:28:50;98831.38;;;21.86;100.00
2681;BME280;1350;42.134;24.708;2022-08-16T03:31:17;98825.97;;;21.86;100.00
2681;BME280;1350;42.134;24.708;2022-08-16T03:33:43;98832.56;;;21.91;100.00
2681;BME280;1350;42.134;24.708;2022-08-16T03:36:12;98833.06;;;21.87;100.00
2681;BME280;1350;42.134;24.708;2022-08-16T03:38:38;98836.06;;;22.16;100.00
2681;BME280;1350;42.134;24.708;2022-08-16T03:41:06;98836.72;;;22.34;100.00
2681;BME280;1350;42.134;24.708;2022-08-16T03:43:33;98838.72;;;22.56;100.00
2681;BME280;1350;42.134;24.708;2022-08-16T03:46:00;98837.53;;;22.42;100.00
2681;BME280;1350;42.134;24.708;2022-08-16T03:48:33;98843.34;;;22.23;100.00
2681;BME280;1350;42.134;24.708;2022-08-16T03:51:02;98841.28;;;22.17;100.00
2681;BME280;1350;42.134;24.708;2022-08-16T03:53:30;98844.50;;;22.13;100.00
2681;BME280;1350;42.134;24.708;2022-08-16T03:55:57;98849.25;;;22.11;100.00
2681;BME280;1350;42.134;24.708;2022-08-16T03:58:24;98844.84;;;22.18;100.00
2681;BME280;1350;42.134;24.708;2022-08-16T04:00:51;98849.75;;;22.14;100.00
2681;BME280;1350;42.134;24.708;2022-08-16T04:03:19;98844.16;;;22.16;100.00
2681;BME280;1350;42.134;24.708;2022-08-16T04:05:47;98840.78;;;22.54;100.00
2681;BME280;1350;42.134;24.708;2022-08-16T04:08:16;98842.41;;;22.71;100.00
2681;BME280;1350;42.134;24.708;2022-08-16T04:10:47;98838.75;;;22.86;100.00
2681;BME280;1350;42.134;24.708;2022-08-16T04:13:13;98830.19;;;23.13;100.00
2681;BME280;1350;42.134;24.708;2022-08-16T04:15:40;98841.34;;;23.49;100.00
2681;BME280;1350;42.134;24.708;2022-08-16T04:18:08;98844.53;;;23.75;100.00
2681;BME280;1350;42.134;24.708;2022-08-16T04:20:35;98850.47;;;23.93;100.00
2681;BME280;1350;42.134;24.708;2022-08-16T04:23:03;98850.75;;;24.21;100.00
2681;BME280;1350;42.134;24.708;2022-08-16T04:25:33;98850.78;;;24.50;100.00
2681;BME280;1350;42.134;24.708;2022-08-16T04:28:02;98842.88;;;24.77;100.00
2681;BME280;1350;42.134;24.708;2022-08-16T04:30:29;98837.72;;;25.12;100.00
2681;BME280;1350;42.134;24.708;2022-08-16T04:32:56;98840.38;;;25.41;100.00
2681;BME280;1350;42.134;24.708;2022-08-16T04:35:23;98841.44;;;25.61;100.00
2681;BME280;1350;42.134;24.708;2022-08-16T04:37:51;98840.91;;;25.72;100.00
2681;BME280;1350;42.134;24.708;2022-08-16T04:40:19;98846.50;;;26.06;100.00
2681;BME280;1350;42.134;24.708;2022-08-16T04:42:46;98862.13;;;26.25;100.00
2681;BME280;1350;42.134;24.708;2022-08-16T04:45:16;98869.13;;;26.13;100.00
2681;BME280;1350;42.134;24.708;2022-08-16T04:47:43;98868.16;;;26.48;99.98
2681;BME280;1350;42.134;24.708;2022-08-16T04:50:12;98862.06;;;26.67;97.27
2681;BME280;1350;42.134;24.708;2022-08-16T04:52:40;98867.91;;;26.98;95.01
2681;BME280;1350;42.134;24.708;2022-08-16T04:55:11;98868.22;;;27.23;92.15
2681;BME280;1350;42.134;24.708;2022-08-16T04:57:39;98859.78;;;27.52;89.15
2681;BME280;1350;42.134;24.708;2022-08-16T05:00:11;98847.16;;;27.38;88.32
2681;BME280;1350;42.134;24.708;2022-08-16T05:02:40;98847.59;;;27.41;87.30
2681;BME280;1350;42.134;24.708;2022-08-16T05:05:08;98850.66;;;27.25;86.00
2681;BME280;1350;42.134;24.708;2022-08-16T05:07:38;98844.88;;;27.41;85.71
2681;BME280;1350;42.134;24.708;2022-08-16T05:10:08;98848.47;;;27.55;85.62
2681;BME280;1350;42.134;24.708;2022-08-16T05:12:36;98857.09;;;27.78;84.65
2681;BME280;1350;42.134;24.708;2022-08-16T05:15:04;98859.41;;;27.81;83.74
2681;BME280;1350;42.134;24.708;2022-08-16T05:17:31;98859.19;;;27.76;84.15
2681;BME280;1350;42.134;24.708;2022-08-16T05:19:59;98862.75;;;27.70;83.80
2681;BME280;1350;42.134;24.708;2022-08-16T05:22:26;98857.53;;;27.81;83.00
2681;BME280;1350;42.134;24.708;2022-08-16T05:24:54;98851.50;;;28.06;82.18
2681;BME280;1350;42.134;24.708;2022-08-16T05:27:21;98852.16;;;28.34;80.75
2681;BME280;1350;42.134;24.708;2022-08-16T05:29:48;98857.78;;;28.45;79.69
2681;BME280;1350;42.134;24.708;2022-08-16T05:32:14;98852.16;;;28.53;78.65
2681;BME280;1350;42.134;24.708;2022-08-16T05:34:41;98847.50;;;28.60;77.92
2681;BME280;1350;42.134;24.708;2022-08-16T05:37:09;98848.75;;;28.71;76.14
2681;BME280;1350;42.134;24.708;2022-08-16T05:39:36;98845.41;;;28.69;76.01
2681;BME280;1350;42.134;24.708;2022-08-16T05:42:03;98847.03;;;29.09;74.30
2681;BME280;1350;42.134;24.708;2022-08-16T05:44:30;98848.19;;;29.77;71.46
2681;BME280;1350;42.134;24.708;2022-08-16T05:46:59;98853.75;;;30.19;69.43
2681;BME280;1350;42.134;24.708;2022-08-16T05:49:27;98856.38;;;30.57;67.10
2681;BME280;1350;42.134;24.708;2022-08-16T05:51:55;98867.19;;;30.94;65.65
2681;BME280;1350;42.134;24.708;2022-08-16T05:54:26;98874.66;;;31.05;64.12
2681;BME280;1350;42.134;24.708;2022-08-16T05:56:54;98876.16;;;30.83;65.00
2681;BME280;1350;42.134;24.708;2022-08-16T05:59:21;98870.41;;;31.09;64.70
2681;BME280;1350;42.134;24.708;2022-08-16T06:01:48;98852.69;;;31.78;62.38
2681;BME280;1350;42.134;24.708;2022-08-16T06:04:17;98852.31;;;32.04;59.47
2681;BME280;1350;42.134;24.708;2022-08-16T06:06:44;98854.06;;;32.51;57.00
2681;BME280;1350;42.134;24.708;2022-08-16T06:09:12;98849.41;;;32.86;55.40
2681;BME280;1350;42.134;24.708;2022-08-16T06:11:42;98852.28;;;33.14;53.67
2681;BME280;1350;42.134;24.708;2022-08-16T06:14:10;98854.22;;;33.53;53.09
2681;BME280;1350;42.134;24.708;2022-08-16T06:16:37;98856.91;;;33.25;52.98
2681;BME280;1350;42.134;24.708;2022-08-16T06:19:04;98846.28;;;33.68;50.86
2681;BME280;1350;42.134;24.708;2022-08-16T06:21:30;98856.56;;;33.22;49.17
2681;BME280;1350;42.134;24.708;2022-08-16T06:23:57;98854.56;;;32.59;50.01
2681;BME280;1350;42.134;24.708;2022-08-16T06:26:24;98855.75;;;32.75;50.82
2681;BME280;1350;42.134;24.708;2022-08-16T06:28:52;98855.84;;;32.80;50.56
2681;BME280;1350;42.134;24.708;2022-08-16T06:31:19;98855.38;;;32.83;49.44
2681;BME280;1350;42.134;24.708;2022-08-16T06:33:46;98847.38;;;32.82;49.67
2681;BME280;1350;42.134;24.708;2022-08-16T06:36:13;98839.25;;;33.21;49.42
2681;BME280;1350;42.134;24.708;2022-08-16T06:38:41;98835.28;;;33.17;49.19
2681;BME280;1350;42.134;24.708;2022-08-16T06:41:09;98828.50;;;33.20;48.80
2681;BME280;1350;42.134;24.708;2022-08-16T06:43:37;98829.06;;;33.61;48.37
2681;BME280;1350;42.134;24.708;2022-08-16T06:46:07;98835.88;;;34.15;47.86
2681;BME280;1350;42.134;24.708;2022-08-16T06:48:36;98828.13;;;34.12;46.66
2681;BME280;1350;42.134;24.708;2022-08-16T06:51:03;98820.13;;;34.27;46.34
2681;BME280;1350;42.134;24.708;2022-08-16T06:53:31;98811.59;;;34.29;46.24
2681;BME280;1350;42.134;24.708;2022-08-16T06:55:59;98817.28;;;34.22;46.07
2681;BME280;1350;42.134;24.708;2022-08-16T06:58:31;98824.03;;;33.98;46.54
2681;BME280;1350;42.134;24.708;2022-08-16T07:00:59;98827.28;;;34.28;46.29
2681;BME280;1350;42.134;24.708;2022-08-16T07:03:27;98817.72;;;33.86;46.57
2681;BME280;1350;42.134;24.708;2022-08-16T07:05:54;98813.50;;;33.95;46.27
2681;BME280;1350;42.134;24.708;2022-08-16T07:08:23;98807.25;;;34.16;46.10
2681;BME280;1350;42.134;24.708;2022-08-16T07:10:50;98810.91;;;34.88;45.18
2681;BME280;1350;42.134;24.708;2022-08-16T07:13:17;98811.94;;;35.25;44.53
2681;BME280;1350;42.134;24.708;2022-08-16T07:15:45;98813.75;;;35.57;44.43
2681;BME280;1350;42.134;24.708;2022-08-16T07:18:14;98807.03;;;36.02;42.84
2681;BME280;1350;42.134;24.708;2022-08-16T07:20:43;98807.91;;;36.34;42.21
2681;BME280;1350;42.134;24.708;2022-08-16T07:23:10;98804.25;;;36.28;40.99
2681;BME280;1350;42.134;24.708;2022-08-16T07:25:36;98807.09;;;36.33;40.78
2681;BME280;1350;42.134;24.708;2022-08-16T07:28:04;98812.16;;;36.46;40.73
2681;BME280;1350;42.134;24.708;2022-08-16T07:30:31;98809.38;;;36.78;40.77
2681;BME280;1350;42.134;24.708;2022-08-16T07:32:59;98819.88;;;37.28;39.81
2681;BME280;1350;42.134;24.708;2022-08-16T07:35:26;98821.06;;;37.52;39.33
2681;BME280;1350;42.134;24.708;2022-08-16T07:37:55;98823.28;;;37.50;38.66
2681;BME280;1350;42.134;24.708;2022-08-16T07:40:21;98823.13;;;37.76;39.00
2681;BME280;1350;42.134;24.708;2022-08-16T07:42:50;98832.34;;;38.12;38.60
2681;BME280;1350;42.134;24.708;2022-08-16T07:45:17;98826.50;;;38.38;38.18
2681;BME280;1350;42.134;24.708;2022-08-16T07:47:43;98826.50;;;38.38;38.37
2681;BME280;1350;42.134;24.708;2022-08-16T07:50:11;98816.56;;;38.62;37.88
2681;BME280;1350;42.134;24.708;2022-08-16T07:52:39;98813.22;;;38.40;38.00
2681;BME280;1350;42.134;24.708;2022-08-16T07:55:10;98816.78;;;38.86;38.70
2681;BME280;1350;42.134;24.708;2022-08-16T07:57:38;98815.63;;;39.12;37.25
2681;BME280;1350;42.134;24.708;2022-08-16T08:00:07;98825.91;;;39.02;36.58
2681;BME280;1350;42.134;24.708;2022-08-16T08:02:34;98812.09;;;38.21;37.08
2681;BME280;1350;42.134;24.708;2022-08-16T08:05:02;98821.78;;;38.14;37.77
2681;BME280;1350;42.134;24.708;2022-08-16T08:07:29;98821.22;;;37.92;38.04
2681;BME280;1350;42.134;24.708;2022-08-16T08:09:56;98819.13;;;36.95;38.34
2681;BME280;1350;42.134;24.708;2022-08-16T08:12:25;98820.56;;;37.60;37.48
2681;BME280;1350;42.134;24.708;2022-08-16T08:14:52;98817.00;;;37.12;37.60
2681;BME280;1350;42.134;24.708;2022-08-16T08:17:18;98816.69;;;37.09;37.98
2681;BME280;1350;42.134;24.708;2022-08-16T08:19:45;98813.16;;;37.95;37.36
2681;BME280;1350;42.134;24.708;2022-08-16T08:22:12;98819.03;;;38.14;37.67
2681;BME280;1350;42.134;24.708;2022-08-16T08:24:39;98816.28;;;38.59;36.99
2681;BME280;1350;42.134;24.708;2022-08-16T08:27:06;98814.88;;;38.41;37.39
2681;BME280;1350;42.134;24.708;2022-08-16T08:29:36;98806.31;;;38.38;36.64
2681;BME280;1350;42.134;24.708;2022-08-16T08:32:04;98807.63;;;38.86;36.18
2681;BME280;1350;42.134;24.708;2022-08-16T08:34:32;98808.53;;;38.61;35.56
2681;BME280;1350;42.134;24.708;2022-08-16T08:36:59;98802.41;;;38.34;35.24
2681;BME280;1350;42.134;24.708;2022-08-16T08:39:26;98800.19;;;38.26;35.23
2681;BME280;1350;42.134;24.708;2022-08-16T08:41:52;98792.13;;;37.99;36.03
2681;BME280;1350;42.134;24.708;2022-08-16T08:44:19;98797.66;;;37.94;36.16
2681;BME280;1350;42.134;24.708;2022-08-16T08:46:48;98803.81;;;38.36;35.66
2681;BME280;1350;42.134;24.708;2022-08-16T08:49:14;98801.81;;;37.97;35.84
2681;BME280;1350;42.134;24.708;2022-08-16T08:51:42;98784.34;;;37.81;35.43
2681;BME280;1350;42.134;24.708;2022-08-16T08:54:08;98794.09;;;38.09;35.83
2681;BME280;1350;42.134;24.708;2022-08-16T08:56:36;98796.88;;;38.14;35.89
2681;BME280;1350;42.134;24.708;2022-08-16T08:59:03;98779.41;;;38.43;35.49
2681;BME280;1350;42.134;24.708;2022-08-16T09:01:34;98799.63;;;38.34;35.94
2681;BME280;1350;42.134;24.708;2022-08-16T09:04:03;98787.44;;;38.65;36.23
2681;BME280;1350;42.134;24.708;2022-08-16T09:06:31;98790.22;;;38.25;36.48
2681;BME280;1350;42.134;24.708;2022-08-16T09:08:59;98784.69;;;38.35;35.53
2681;BME280;1350;42.134;24.708;2022-08-16T09:11:26;98786.34;;;38.41;35.57
2681;BME280;1350;42.134;24.708;2022-08-16T09:13:52;98793.56;;;38.32;35.10
2681;BME280;1350;42.134;24.708;2022-08-16T09:16:19;98792.66;;;37.91;35.69
2681;BME280;1350;42.134;24.708;2022-08-16T09:18:46;98793.19;;;37.68;36.14
2681;BME280;1350;42.134;24.708;2022-08-16T09:21:15;98790.84;;;37.40;36.42
2681;BME280;1350;42.134;24.708;2022-08-16T09:23:42;98800.03;;;37.51;35.96
2681;BME280;1350;42.134;24.708;2022-08-16T09:26:11;98790.50;;;37.21;35.81
2681;BME280;1350;42.134;24.708;2022-08-16T09:28:40;98788.91;;;37.36;36.77
2681;BME280;1350;42.134;24.708;2022-08-16T09:31:08;98785.34;;;37.55;37.12
2681;BME280;1350;42.134;24.708;2022-08-16T09:33:35;98781.84;;;37.80;36.05
2681;BME280;1350;42.134;24.708;2022-08-16T09:36:02;98779.72;;;38.12;35.45
2681;BME280;1350;42.134;24.708;2022-08-16T09:38:30;98776.66;;;38.28;35.12
2681;BME280;1350;42.134;24.708;2022-08-16T09:40:59;98776.63;;;38.58;34.56
2681;BME280;1350;42.134;24.708;2022-08-16T09:43:26;98778.03;;;38.31;34.73
2681;BME280;1350;42.134;24.708;2022-08-16T09:45:53;98770.28;;;38.18;34.76
2681;BME280;1350;42.134;24.708;2022-08-16T09:48:19;98769.16;;;38.29;34.75
2681;BME280;1350;42.134;24.708;2022-08-16T09:50:46;98777.72;;;38.07;34.28
2681;BME280;1350;42.134;24.708;2022-08-16T09:53:15;98768.88;;;38.25;33.95
2681;BME280;1350;42.134;24.708;2022-08-16T09:55:45;98762.41;;;38.85;32.38
2681;BME280;1350;42.134;24.708;2022-08-16T09:58:13;98758.34;;;38.37;32.78
2681;BME280;1350;42.134;24.708;2022-08-16T10:00:40;98757.50;;;38.47;32.81
2681;BME280;1350;42.134;24.708;2022-08-16T10:03:06;98750.31;;;38.36;32.83
2681;BME280;1350;42.134;24.708;2022-08-16T10:05:33;98746.72;;;38.20;33.10
2681;BME280;1350;42.134;24.708;2022-08-16T10:08:02;98749.75;;;38.34;33.85
2681;BME280;1350;42.134;24.708;2022-08-16T10:10:30;98743.09;;;38.20;33.48
2681;BME280;1350;42.134;24.708;2022-08-16T10:12:58;98735.88;;;38.34;33.47
2681;BME280;1350;42.134;24.708;2022-08-16T10:15:38;98740.88;;;38.07;33.70
2681;BME280;1350;42.134;24.708;2022-08-16T10:18:06;98742.53;;;38.03;34.14
2681;BME280;1350;42.134;24.708;2022-08-16T10:20:36;98747.53;;;38.41;33.14
2681;BME280;1350;42.134;24.708;2022-08-16T10:23:12;98737.00;;;38.28;33.64
2681;BME280;1350;42.134;24.708;2022-08-16T10:25:41;98736.69;;;38.44;33.94
2681;BME280;1350;42.134;24.708;2022-08-16T10:28:11;98738.13;;;38.27;33.22
2681;BME280;1350;42.134;24.708;2022-08-16T10:30:39;98735.88;;;38.44;33.09
2681;BME280;1350;42.134;24.708;2022-08-16T10:33:06;98731.47;;;38.13;33.59
2681;BME280;1350;42.134;24.708;2022-08-16T10:35:33;98717.63;;;38.13;33.03
2681;BME280;1350;42.134;24.708;2022-08-16T10:38:00;98731.19;;;38.29;33.80
2681;BME280;1350;42.134;24.708;2022-08-16T10:40:27;98735.34;;;38.32;33.89
2681;BME280;1350;42.134;24.708;2022-08-16T10:42:54;98727.59;;;37.89;34.39
2681;BME280;1350;42.134;24.708;2022-08-16T10:45:23;98723.44;;;37.91;34.40
2681;BME280;1350;42.134;24.708;2022-08-16T10:47:50;98723.16;;;37.78;34.69
2681;BME280;1350;42.134;24.708;2022-08-16T10:50:20;98722.03;;;37.94;34.55
2681;BME280;1350;42.134;24.708;2022-08-16T10:52:47;98721.22;;;38.28;34.29
2681;BME280;1350;42.134;24.708;2022-08-16T10:55:14;98724.25;;;37.97;34.72
2681;BME280;1350;42.134;24.708;2022-08-16T10:57:41;98723.13;;;38.43;33.50
2681;BME280;1350;42.134;24.708;2022-08-16T11:00:12;98721.22;;;38.18;33.56
2681;BME280;1350;42.134;24.708;2022-08-16T11:02:41;98721.69;;;38.70;33.54
2681;BME280;1350;42.134;24.708;2022-08-16T11:05:11;98718.53;;;39.61;32.72
2681;BME280;1350;42.134;24.708;2022-08-16T11:07:39;98728.28;;;40.25;31.52
2681;BME280;1350;42.134;24.708;2022-08-16T11:10:07;98720.13;;;40.39;32.17
2681;BME280;1350;42.134;24.708;2022-08-16T11:12:34;98722.03;;;40.91;31.00
2681;BME280;1350;42.134;24.708;2022-08-16T11:15:02;98731.41;;;41.23;29.92
2681;BME280;1350;42.134;24.708;2022-08-16T11:17:28;98725.81;;;41.65;29.82
2681;BME280;1350;42.134;24.708;2022-08-16T11:19:57;98727.13;;;41.87;29.84
2681;BME280;1350;42.134;24.708;2022-08-16T11:22:24;98724.03;;;42.39;29.70
2681;BME280;1350;42.134;24.708;2022-08-16T11:24:51;98730.69;;;42.24;29.08
2681;BME280;1350;42.134;24.708;2022-08-16T11:27:19;98724.28;;;42.24;29.67
2681;BME280;1350;42.134;24.708;2022-08-16T11:29:47;98714.94;;;41.83;29.23
2681;BME280;1350;42.134;24.708;2022-08-16T11:32:14;98720.09;;;41.89;29.61
2681;BME280;1350;42.134;24.708;2022-08-16T11:34:41;98716.28;;;41.29;28.75
2681;BME280;1350;42.134;24.708;2022-08-16T11:37:10;98709.41;;;41.64;28.70
2681;BME280;1350;42.134;24.708;2022-08-16T11:39:36;98715.25;;;41.81;28.55
2681;BME280;1350;42.134;24.708;2022-08-16T11:42:04;98710.00;;;41.61;28.93
2681;BME280;1350;42.134;24.708;2022-08-16T11:44:30;98715.94;;;42.24;28.52
2681;BME280;1350;42.134;24.708;2022-08-16T11:46:58;98706.09;;;42.13;28.13
2681;BME280;1350;42.134;24.708;2022-08-16T11:49:25;98704.75;;;42.10;28.18
2681;BME280;1350;42.134;24.708;2022-08-16T11:51:52;98697.91;;;42.03;27.60
2681;BME280;1350;42.134;24.708;2022-08-16T11:54:21;98700.72;;;42.48;27.07
2681;BME280;1350;42.134;24.708;2022-08-16T11:56:48;98696.53;;;41.26;28.75
2681;BME280;1350;42.134;24.708;2022-08-16T11:59:14;98701.97;;;42.10;27.72
2681;BME280;1350;42.134;24.708;2022-08-16T12:01:43;98692.88;;;42.64;27.79
2681;BME280;1350;42.134;24.708;2022-08-16T12:04:10;98683.75;;;42.31;28.35
2681;BME280;1350;42.134;24.708;2022-08-16T12:06:37;98685.31;;;42.64;27.40
2681;BME280;1350;42.134;24.708;2022-08-16T12:09:04;98675.84;;;42.79;26.75
2681;BME280;1350;42.134;24.708;2022-08-16T12:11:33;98674.00;;;42.74;27.27
2681;BME280;1350;42.134;24.708;2022-08-16T12:14:00;98671.22;;;42.29;27.48
2681;BME280;1350;42.134;24.708;2022-08-16T12:16:27;98661.97;;;40.43;28.76
2681;BME280;1350;42.134;24.708;2022-08-16T12:18:54;98662.44;;;40.50;28.98
2681;BME280;1350;42.134;24.708;2022-08-16T12:21:21;98662.09;;;40.56;29.46
2681;BME280;1350;42.134;24.708;2022-08-16T12:23:47;98658.34;;;40.42;29.50
2681;BME280;1350;42.134;24.708;2022-08-16T12:26:14;98655.63;;;40.61;29.32
2681;BME280;1350;42.134;24.708;2022-08-16T12:28:43;98659.25;;;40.85;28.78
2681;BME280;1350;42.134;24.708;2022-08-16T12:31:10;98653.63;;;40.90;28.76
2681;BME280;1350;42.134;24.708;2022-08-16T12:33:37;98637.47;;;40.68;28.06
2681;BME280;1350;42.134;24.708;2022-08-16T12:36:09;98638.03;;;40.70;28.08
2681;BME280;1350;42.134;24.708;2022-08-16T12:38:36;98631.97;;;40.40;29.03
2681;BME280;1350;42.134;24.708;2022-08-16T12:41:02;98637.66;;;40.24;29.13
2681;BME280;1350;42.134;24.708;2022-08-16T12:43:29;98643.41;;;39.42;30.24
2681;BME280;1350;42.134;24.708;2022-08-16T12:45:58;98627.75;;;39.13;30.37
2681;BME280;1350;42.134;24.708;2022-08-16T12:48:29;98631.22;;;39.33;29.73
2681;BME280;1350;42.134;24.708;2022-08-16T12:51:17;98631.44;;;38.98;30.56
2681;BME280;1350;42.134;24.708;2022-08-16T12:53:46;98630.41;;;38.84;30.41
2681;BME280;1350;42.134;24.708;2022-08-16T12:56:16;98627.44;;;38.65;31.76
2681;BME280;1350;42.134;24.708;2022-08-16T12:58:45;98627.91;;;38.83;31.31
2681;BME280;1350;42.134;24.708;2022-08-16T13:01:16;98625.94;;;38.88;31.33
2681;BME280;1350;42.134;24.708;2022-08-16T13:03:43;98623.94;;;38.35;31.73
2681;BME280;1350;42.134;24.708;2022-08-16T13:06:10;98623.16;;;37.99;31.79
2681;BME280;1350;42.134;24.708;2022-08-16T13:08:37;98615.44;;;37.66;32.04
2681;BME280;1350;42.134;24.708;2022-08-16T13:11:04;98621.78;;;37.32;31.57
2681;BME280;1350;42.134;24.708;2022-08-16T13:13:31;98619.47;;;36.93;32.06
2681;BME280;1350;42.134;24.708;2022-08-16T13:16:02;98616.66;;;36.78;33.56